Time;durP1;ratioP1;P1;durP2;ratioP2;P2;SDS_P1;SDS_P2;PMS_P1;PMS_P2;Temp;Humidity;BMP_temperature;BMP_pressure;BME280_temperature;BME280_humidity;BME280_pressure;Samples;Min_cycle;Max_cycle;Signal;HPM_P1;HPM_P2
2022/03/02 00:01:54;;;;;;;;;;;128.10;2099.20;;;;;;5035588;28;19936;-79
2022/03/02 00:04:19;;;;;;;;;;;128.20;2099.20;;;;;;5035657;28;19964;-79
2022/03/02 00:06:45;;;;;;;;;;;128.00;2099.20;;;;;;5035686;28;19912;-80
2022/03/02 00:09:10;;;;;;;;;;;128.20;2073.60;;;;;;5035921;28;20016;-79
2022/03/02 00:11:36;;;;;;;;;;;103.20;2048.00;;;;;;5035050;28;19945;-78
2022/03/02 00:14:03;;;;;;;;;;;103.20;2073.60;;;;;;5036981;28;19909;-80
2022/03/02 00:16:29;;;;;;;;;;;103.10;2073.60;;;;;;5035824;28;19905;-79
2022/03/02 00:18:56;;;;;;;;;;;103.10;2048.00;;;;;;5036657;28;19912;-79
2022/03/02 00:21:22;;;;;;;;;;;103.10;2022.40;;;;;;5036951;28;19928;-79
2022/03/02 00:23:48;;;;;;;;;;;103.20;2022.40;;;;;;5035587;28;20429;-79
2022/03/02 00:26:14;;;;;;;;;;;103.20;2022.40;;;;;;5035255;28;19911;-80
2022/03/02 00:28:39;;;;;;;;;;;103.10;2022.40;;;;;;5035421;28;19980;-79
2022/03/02 00:31:05;;;;;;;;;;;103.00;2022.40;;;;;;5035465;28;20363;-79
2022/03/02 00:33:31;;;;;;;;;;;102.80;2048.00;;;;;;5035019;28;19979;-79
2022/03/02 00:35:56;;;;;;;;;;;103.00;2048.00;;;;;;5035653;28;19916;-79
2022/03/02 00:38:22;;;;;;;;;;;103.10;2022.40;;;;;;5035323;28;19912;-79
2022/03/02 00:40:48;;;;;;;;;;;103.20;2022.40;;;;;;5035315;28;20363;-80
2022/03/02 00:43:13;;;;;;;;;;;103.00;2048.00;;;;;;5035551;28;19909;-79
2022/03/02 00:45:39;;;;;;;;;;;103.00;2073.60;;;;;;5035529;28;20283;-79
2022/03/02 00:48:05;;;;;;;;;;;102.90;2073.60;;;;;;5034387;28;20370;-80
2022/03/02 00:50:31;;;;;;;;;;;102.80;2124.80;;;;;;5034985;28;19905;-80
2022/03/02 00:52:57;;;;;;;;;;;102.70;2124.80;;;;;;5034948;28;19909;-79
2022/03/02 00:55:23;;;;;;;;;;;102.80;2124.80;;;;;;5035084;28;19904;-79
2022/03/02 00:57:48;;;;;;;;;;;103.00;2099.20;;;;;;5036104;28;19905;-79
2022/03/02 01:00:15;;;;;;;;;;;102.80;2124.80;;;;;;5034141;28;20004;-79
2022/03/02 01:02:40;;;;;;;;;;;102.80;2150.40;;;;;;5035722;28;19948;-78
2022/03/02 01:05:07;;;;;;;;;;;102.70;2150.40;;;;;;5035777;28;19954;-79
2022/03/02 01:07:32;;;;;;;;;;;102.70;2150.40;;;;;;5034790;28;19913;-79
2022/03/02 01:09:59;;;;;;;;;;;102.70;2150.40;;;;;;5034227;28;20280;-79
2022/03/02 01:12:25;;;;;;;;;;;102.70;2176.00;;;;;;5034336;28;19909;-79
2022/03/02 01:14:50;;;;;;;;;;;102.70;2150.40;;;;;;5034572;28;20336;-79
2022/03/02 01:17:17;;;;;;;;;;;102.80;2150.40;;;;;;5035850;28;20043;-79
2022/03/02 01:19:42;;;;;;;;;;;102.80;2150.40;;;;;;5035377;28;19905;-79
2022/03/02 01:22:08;;;;;;;;;;;102.90;2124.80;;;;;;5033776;28;20274;-79
2022/03/02 01:24:33;;;;;;;;;;;103.10;2124.80;;;;;;5035415;28;19984;-78
2022/03/02 01:27:01;;;;;;;;;;;103.30;2124.80;;;;;;5035343;28;20307;-79
2022/03/02 01:29:28;;;;;;;;;;;103.10;2099.20;;;;;;5034452;28;19919;-78
2022/03/02 01:31:54;;;;;;;;;;;103.10;2073.60;;;;;;5035598;28;19912;-79
2022/03/02 01:34:19;;;;;;;;;;;103.00;2099.20;;;;;;5035210;28;20007;-79
2022/03/02 01:36:45;;;;;;;;;;;103.20;2099.20;;;;;;5033901;28;19905;-79
2022/03/02 01:39:11;;;;;;;;;;;103.10;2099.20;;;;;;5034269;28;19909;-79
2022/03/02 01:41:37;;;;;;;;;;;103.10;2073.60;;;;;;5034977;28;19932;-79
2022/03/02 01:44:02;;;;;;;;;;;102.90;2073.60;;;;;;5035301;28;20386;-80
2022/03/02 01:46:30;;;;;;;;;;;103.00;2099.20;;;;;;5033975;28;19905;-79
2022/03/02 01:48:56;;;;;;;;;;;102.90;2073.60;;;;;;5034960;28;19913;-79
2022/03/02 01:51:21;;;;;;;;;;;103.10;2073.60;;;;;;5034937;28;20290;-80
2022/03/02 01:53:47;;;;;;;;;;;103.10;2099.20;;;;;;5034633;28;19905;-79
2022/03/02 01:56:13;;;;;;;;;;;103.30;2073.60;;;;;;5033787;28;19905;-79
2022/03/02 01:58:39;;;;;;;;;;;128.20;2048.00;;;;;;5033164;28;20414;-79
2022/03/02 02:01:04;;;;;;;;;;;128.40;2022.40;;;;;;5034729;28;19912;-79
2022/03/02 02:03:30;;;;;;;;;;;128.30;2022.40;;;;;;5033947;28;19956;-78
2022/03/02 02:05:56;;;;;;;;;;;103.30;2048.00;;;;;;5033597;28;19909;-80
2022/03/02 02:08:23;;;;;;;;;;;128.00;2099.20;;;;;;5033743;28;19928;-79
2022/03/02 02:10:48;;;;;;;;;;;103.30;2048.00;;;;;;5033459;28;19908;-79
2022/03/02 02:13:14;;;;;;;;;;;103.30;2048.00;;;;;;5032661;28;19963;-79
2022/03/02 02:15:40;;;;;;;;;;;128.10;2073.60;;;;;;5033321;28;19905;-79
2022/03/02 02:18:06;;;;;;;;;;;128.30;2048.00;;;;;;5032892;28;20375;-79
2022/03/02 02:20:36;;;;;;;;;;;128.40;2048.00;;;;;;5032706;28;20343;-79
2022/03/02 02:23:01;;;;;;;;;;;128.60;2022.40;;;;;;5016529;28;19909;-78
2022/03/02 02:25:27;;;;;;;;;;;128.50;1996.80;;;;;;5033533;28;20424;-79
2022/03/02 02:27:52;;;;;;;;;;;128.60;2022.40;;;;;;5033418;28;19913;-80
2022/03/02 02:30:18;;;;;;;;;;;128.70;2022.40;;;;;;5032823;28;19999;-79
2022/03/02 02:32:43;;;;;;;;;;;128.60;2022.40;;;;;;5033278;28;20343;-79
2022/03/02 02:35:10;;;;;;;;;;;128.30;2048.00;;;;;;5032676;28;19909;-79
2022/03/02 02:37:36;;;;;;;;;;;128.20;2048.00;;;;;;5034446;28;20343;-79
2022/03/02 02:40:07;;;;;;;;;;;128.10;2048.00;;;;;;5033314;28;19905;-79
2022/03/02 02:42:33;;;;;;;;;;;128.00;2048.00;;;;;;5033273;28;19916;-79
2022/03/02 02:44:58;;;;;;;;;;;128.00;2048.00;;;;;;5033137;28;19909;-79
2022/03/02 02:47:24;;;;;;;;;;;128.00;2073.60;;;;;;5033108;28;19911;-78
2022/03/02 02:49:50;;;;;;;;;;;128.30;2073.60;;;;;;5032667;28;19905;-79
2022/03/02 02:52:15;;;;;;;;;;;128.40;2073.60;;;;;;5033097;28;19912;-79
2022/03/02 02:54:41;;;;;;;;;;;128.40;2073.60;;;;;;5032399;28;20346;-79
2022/03/02 02:57:07;;;;;;;;;;;128.20;2073.60;;;;;;5032839;28;19905;-79
2022/03/02 02:59:33;;;;;;;;;;;103.20;2048.00;;;;;;5032518;28;20038;-79
2022/03/02 03:01:58;;;;;;;;;;;103.10;2048.00;;;;;;5033012;28;19905;-79
2022/03/02 03:04:24;;;;;;;;;;;103.00;2099.20;;;;;;5032761;28;19917;-80
2022/03/02 03:06:50;;;;;;;;;;;102.80;2124.80;;;;;;5032650;28;19927;-79
2022/03/02 03:09:18;;;;;;;;;;;102.70;2124.80;;;;;;5032976;28;19913;-79
2022/03/02 03:11:44;;;;;;;;;;;102.90;2099.20;;;;;;5032777;28;19912;-79
2022/03/02 03:14:10;;;;;;;;;;;102.70;2124.80;;;;;;5032867;28;19917;-79
2022/03/02 03:16:36;;;;;;;;;;;102.50;2150.40;;;;;;5032732;28;19907;-79
2022/03/02 03:19:02;;;;;;;;;;;102.50;2150.40;;;;;;5032744;28;19905;-79
2022/03/02 03:21:28;;;;;;;;;;;102.50;2150.40;;;;;;5032677;28;19905;-79
2022/03/02 03:23:53;;;;;;;;;;;102.40;2150.40;;;;;;5033696;28;19966;-79
2022/03/02 03:26:19;;;;;;;;;;;102.60;2124.80;;;;;;5036678;28;19909;-79
2022/03/02 03:28:44;;;;;;;;;;;102.50;2124.80;;;;;;5038033;28;20426;-79
2022/03/02 03:31:10;;;;;;;;;;;102.70;2099.20;;;;;;5037811;28;20032;-80
2022/03/02 03:33:36;;;;;;;;;;;102.60;2099.20;;;;;;5036615;28;19958;-79
2022/03/02 03:36:02;;;;;;;;;;;102.50;2099.20;;;;;;5036378;28;19905;-79
2022/03/02 03:38:28;;;;;;;;;;;102.40;2124.80;;;;;;5036603;28;20347;-79
2022/03/02 03:40:53;;;;;;;;;;;77.60;2150.40;;;;;;5036121;28;19911;-79
2022/03/02 03:43:19;;;;;;;;;;;77.50;2176.00;;;;;;5036446;28;20433;-79
2022/03/02 03:45:45;;;;;;;;;;;77.50;2201.60;;;;;;5036407;28;19905;-80
2022/03/02 03:48:10;;;;;;;;;;;77.60;2201.60;;;;;;5036150;28;20262;-79
2022/03/02 03:50:36;;;;;;;;;;;102.40;2176.00;;;;;;5035710;28;19905;-79
2022/03/02 03:53:01;;;;;;;;;;;102.40;2176.00;;;;;;5036033;28;19905;-78
2022/03/02 03:55:27;;;;;;;;;;;77.70;2150.40;;;;;;5035984;28;19912;-79
2022/03/02 03:57:52;;;;;;;;;;;102.40;2150.40;;;;;;5035852;28;19905;-79
2022/03/02 04:00:19;;;;;;;;;;;102.50;2124.80;;;;;;5036051;28;20369;-80
2022/03/02 04:02:45;;;;;;;;;;;102.40;2150.40;;;;;;5036261;28;19917;-79
2022/03/02 04:05:11;;;;;;;;;;;102.40;2124.80;;;;;;5035842;28;20271;-80
2022/03/02 04:07:38;;;;;;;;;;;102.40;2150.40;;;;;;5037089;28;19992;-80
2022/03/02 04:10:07;;;;;;;;;;;77.40;2150.40;;;;;;5036057;28;20351;-79
2022/03/02 04:12:33;;;;;;;;;;;77.30;2201.60;;;;;;5035832;28;19906;-80
2022/03/02 04:14:59;;;;;;;;;;;77.40;2201.60;;;;;;5035757;28;19913;-79
2022/03/02 04:17:25;;;;;;;;;;;77.40;2201.60;;;;;;5035959;28;20389;-80
2022/03/02 04:19:50;;;;;;;;;;;77.30;2176.00;;;;;;5035952;28;19940;-79
2022/03/02 04:22:16;;;;;;;;;;;77.40;2176.00;;;;;;5034934;28;19905;-80
2022/03/02 04:24:42;;;;;;;;;;;102.40;2176.00;;;;;;5035715;28;19912;-79
2022/03/02 04:27:08;;;;;;;;;;;77.50;2176.00;;;;;;5035450;28;19912;-80
2022/03/02 04:29:34;;;;;;;;;;;77.30;2150.40;;;;;;5035293;28;20415;-80
2022/03/02 04:31:59;;;;;;;;;;;102.40;2150.40;;;;;;5035432;28;19909;-80
2022/03/02 04:34:26;;;;;;;;;;;77.60;2124.80;;;;;;5034660;28;19970;-80
2022/03/02 04:36:52;;;;;;;;;;;77.30;2150.40;;;;;;5034397;28;20417;-79
2022/03/02 04:39:17;;;;;;;;;;;77.10;2150.40;;;;;;5035466;28;20277;-80
2022/03/02 04:41:43;;;;;;;;;;;77.10;2176.00;;;;;;5035366;28;19905;-80
2022/03/02 04:44:09;;;;;;;;;;;77.00;2201.60;;;;;;5035361;28;19959;-79
2022/03/02 04:46:34;;;;;;;;;;;77.20;2176.00;;;;;;5036322;28;19905;-80
2022/03/02 04:49:10;;;;;;;;;;;77.20;2201.60;;;;;;5035052;28;19916;-80
2022/03/02 04:51:42;;;;;;;;;;;77.50;2176.00;;;;;;5034920;28;19905;-79
2022/03/02 04:54:08;;;;;;;;;;;77.40;2150.40;;;;;;5035389;28;19974;-78
2022/03/02 04:56:34;;;;;;;;;;;77.30;2150.40;;;;;;5036252;28;20351;-80
2022/03/02 04:59:03;;;;;;;;;;;77.30;2124.80;;;;;;5035086;28;19912;-79
2022/03/02 05:01:29;;;;;;;;;;;77.20;2176.00;;;;;;5035105;28;19912;-79
2022/03/02 05:03:55;;;;;;;;;;;77.40;2176.00;;;;;;5035953;28;19916;-80
2022/03/02 05:06:20;;;;;;;;;;;77.60;2124.80;;;;;;5034270;28;19904;-79
2022/03/02 05:08:46;;;;;;;;;;;77.60;2124.80;;;;;;5034810;28;19964;-80
2022/03/02 05:11:11;;;;;;;;;;;77.10;2150.40;;;;;;5034761;28;19909;-79
2022/03/02 05:13:37;;;;;;;;;;;77.20;2176.00;;;;;;5034869;28;19988;-79
2022/03/02 05:16:03;;;;;;;;;;;77.30;2176.00;;;;;;5034812;28;19905;-80
2022/03/02 05:18:28;;;;;;;;;;;77.70;2124.80;;;;;;5034734;28;19905;-79
2022/03/02 05:20:54;;;;;;;;;;;102.50;2073.60;;;;;;5034523;28;19905;-79
2022/03/02 05:23:19;;;;;;;;;;;102.60;2048.00;;;;;;5034092;28;20020;-80
2022/03/02 05:25:45;;;;;;;;;;;102.70;2022.40;;;;;;5034662;28;19905;-80
2022/03/02 05:28:10;;;;;;;;;;;102.80;2022.40;;;;;;5034122;28;19913;-78
2022/03/02 05:30:36;;;;;;;;;;;102.80;2022.40;;;;;;5034358;28;19905;-79
2022/03/02 05:33:02;;;;;;;;;;;102.90;2022.40;;;;;;5034522;28;19963;-80
2022/03/02 05:35:27;;;;;;;;;;;102.90;2022.40;;;;;;5033537;28;19948;-79
2022/03/02 05:37:53;;;;;;;;;;;102.80;2022.40;;;;;;5034010;28;20381;-80
2022/03/02 05:40:19;;;;;;;;;;;102.70;2048.00;;;;;;5033996;28;19905;-80
2022/03/02 05:42:45;;;;;;;;;;;102.70;2048.00;;;;;;5033978;28;19909;-79
2022/03/02 05:45:10;;;;;;;;;;;102.50;2073.60;;;;;;5033961;28;19999;-79
2022/03/02 05:47:37;;;;;;;;;;;102.50;2099.20;;;;;;5033576;28;20007;-79
2022/03/02 05:50:04;;;;;;;;;;;102.60;2073.60;;;;;;5033832;28;19905;-79
2022/03/02 05:52:30;;;;;;;;;;;102.60;2073.60;;;;;;5034001;28;19909;-79
2022/03/02 05:54:55;;;;;;;;;;;102.70;2048.00;;;;;;5033868;28;20442;-79
2022/03/02 05:57:21;;;;;;;;;;;102.70;2048.00;;;;;;5033732;28;19911;-79
2022/03/02 05:59:46;;;;;;;;;;;102.80;2048.00;;;;;;5032859;28;20394;-79
2022/03/02 06:02:12;;;;;;;;;;;102.70;2048.00;;;;;;5033482;28;19905;-79
2022/03/02 06:04:38;;;;;;;;;;;102.80;2048.00;;;;;;5033282;28;19995;-79
2022/03/02 06:07:03;;;;;;;;;;;102.80;2048.00;;;;;;5033214;28;19909;-79
2022/03/02 06:09:29;;;;;;;;;;;102.80;2048.00;;;;;;5034634;28;19913;-79
2022/03/02 06:11:54;;;;;;;;;;;102.80;2048.00;;;;;;5033456;28;20287;-79
2022/03/02 06:14:20;;;;;;;;;;;102.60;2048.00;;;;;;5033174;28;19909;-79
2022/03/02 06:16:46;;;;;;;;;;;102.50;2048.00;;;;;;5034496;28;19912;-79
2022/03/02 06:19:12;;;;;;;;;;;102.50;2073.60;;;;;;5032512;28;19967;-79
2022/03/02 06:21:40;;;;;;;;;;;102.40;2124.80;;;;;;5034330;28;19905;-78
2022/03/02 06:24:06;;;;;;;;;;;77.70;2073.60;;;;;;5033442;28;19905;-79
2022/03/02 06:26:32;;;;;;;;;;;77.40;2124.80;;;;;;5033340;28;19947;-78
2022/03/02 06:28:57;;;;;;;;;;;77.50;2124.80;;;;;;5033309;28;19913;-77
2022/03/02 06:31:23;;;;;;;;;;;77.20;2176.00;;;;;;5033079;28;19905;-78
2022/03/02 06:33:49;;;;;;;;;;;77.20;2227.20;;;;;;5033134;28;19905;-77
2022/03/02 06:36:15;;;;;;;;;;;77.60;2176.00;;;;;;5033069;28;19979;-79
2022/03/02 06:38:41;;;;;;;;;;;77.50;2176.00;;;;;;5042624;28;19909;-78
2022/03/02 06:41:08;;;;;;;;;;;77.30;2227.20;;;;;;5043443;28;20274;-78
2022/03/02 06:43:38;;;;;;;;;;;77.60;2201.60;;;;;;5040823;28;19948;-87
2022/03/02 06:46:07;;;;;;;;;;;77.40;2176.00;;;;;;5044630;28;19992;-80
2022/03/02 06:48:55;;;;;;;;;;;77.20;2201.60;;;;;;5039605;28;19913;-80
2022/03/02 06:51:22;;;;;;;;;;;77.50;2201.60;;;;;;5042411;28;19904;-78
2022/03/02 06:53:49;;;;;;;;;;;77.40;2150.40;;;;;;5047894;28;19915;-79
2022/03/02 06:56:17;;;;;;;;;;;77.50;2150.40;;;;;;5034049;28;19956;-80
2022/03/02 06:58:50;;;;;;;;;;;77.50;2176.00;;;;;;5037883;28;19915;-78
2022/03/02 07:01:23;;;;;;;;;;;77.30;2201.60;;;;;;5045598;28;19944;-77
2022/03/02 07:03:52;;;;;;;;;;;77.70;2124.80;;;;;;5043693;28;19917;-81
2022/03/02 07:06:18;;;;;;;;;;;77.20;2176.00;;;;;;5047153;28;19905;-79
2022/03/02 07:08:45;;;;;;;;;;;77.40;2201.60;;;;;;5037750;28;20351;-78
2022/03/02 07:11:10;;;;;;;;;;;77.50;2176.00;;;;;;5036835;28;19921;-80
2022/03/02 07:13:36;;;;;;;;;;;77.50;2176.00;;;;;;5036521;28;19913;-78
2022/03/02 07:16:02;;;;;;;;;;;77.40;2201.60;;;;;;5042817;28;19909;-78
2022/03/02 07:18:28;;;;;;;;;;;77.50;2176.00;;;;;;5043630;28;19960;-81
2022/03/02 07:20:55;;;;;;;;;;;77.40;2176.00;;;;;;5045457;28;19912;-80
2022/03/02 07:23:22;;;;;;;;;;;77.50;2176.00;;;;;;5049847;28;19913;-79
2022/03/02 07:25:49;;;;;;;;;;;77.50;2176.00;;;;;;5046588;28;19958;-90
2022/03/02 07:28:15;;;;;;;;;;;77.70;2201.60;;;;;;5046122;28;20363;-84
2022/03/02 07:30:42;;;;;;;;;;;102.80;2124.80;;;;;;5041024;28;19909;-83
2022/03/02 07:33:08;;;;;;;;;;;102.70;2150.40;;;;;;5046909;28;19905;-85
2022/03/02 07:35:35;;;;;;;;;;;102.50;2124.80;;;;;;5042939;28;20347;-78
2022/03/02 07:38:02;;;;;;;;;;;102.50;2150.40;;;;;;5036581;28;19905;-86
2022/03/02 07:40:27;;;;;;;;;;;102.70;2124.80;;;;;;5035966;28;19905;-81
2022/03/02 07:42:53;;;;;;;;;;;102.70;2124.80;;;;;;5037109;28;19999;-77
2022/03/02 07:45:19;;;;;;;;;;;102.70;2124.80;;;;;;5036164;28;19916;-79
2022/03/02 07:47:45;;;;;;;;;;;102.60;2150.40;;;;;;5037034;28;20319;-80
2022/03/02 07:50:13;;;;;;;;;;;102.90;2150.40;;;;;;5037044;28;19948;-78
2022/03/02 07:52:39;;;;;;;;;;;103.10;2099.20;;;;;;5035919;28;19909;-80
2022/03/02 07:55:09;;;;;;;;;;;103.00;2099.20;;;;;;5036222;28;19940;-79
2022/03/02 07:57:35;;;;;;;;;;;103.00;2124.80;;;;;;5037175;28;19909;-79
2022/03/02 08:00:04;;;;;;;;;;;103.10;2124.80;;;;;;5037308;28;19911;-79
2022/03/02 08:02:30;;;;;;;;;;;102.90;2124.80;;;;;;5036500;28;19920;-81
2022/03/02 08:04:56;;;;;;;;;;;102.90;2150.40;;;;;;5036829;28;19916;-80
2022/03/02 08:07:22;;;;;;;;;;;103.00;2124.80;;;;;;5035823;28;19905;-81
2022/03/02 08:09:50;;;;;;;;;;;103.20;2124.80;;;;;;5036880;28;20366;-80
2022/03/02 08:12:18;;;;;;;;;;;103.00;2150.40;;;;;;5036682;28;19905;-79
2022/03/02 08:14:44;;;;;;;;;;;103.00;2150.40;;;;;;5036981;28;19913;-82
2022/03/02 08:17:10;;;;;;;;;;;103.00;2150.40;;;;;;5036718;28;19909;-79
2022/03/02 08:19:35;;;;;;;;;;;103.10;2150.40;;;;;;5036745;28;20377;-76
2022/03/02 08:22:06;;;;;;;;;;;103.00;2176.00;;;;;;5036514;28;19959;-78
2022/03/02 08:24:32;;;;;;;;;;;103.00;2201.60;;;;;;5035448;28;19996;-77
2022/03/02 08:27:00;;;;;;;;;;;103.10;2176.00;;;;;;5036824;28;19940;-81
2022/03/02 08:29:29;;;;;;;;;;;103.00;2176.00;;;;;;5036488;28;19913;-78
2022/03/02 08:31:58;;;;;;;;;;;103.30;2201.60;;;;;;5036605;28;19905;-77
2022/03/02 08:34:24;;;;;;;;;;;103.20;2176.00;;;;;;5035051;28;20381;-79
2022/03/02 08:36:49;;;;;;;;;;;128.00;2176.00;;;;;;5035148;28;19909;-82
2022/03/02 08:39:15;;;;;;;;;;;128.00;2201.60;;;;;;5034618;28;19905;-79
2022/03/02 08:41:41;;;;;;;;;;;128.10;2201.60;;;;;;5034811;28;19911;-79
2022/03/02 08:44:07;;;;;;;;;;;128.30;2176.00;;;;;;5036167;28;19913;-78
2022/03/02 08:46:33;;;;;;;;;;;128.10;2176.00;;;;;;5034895;28;19905;-79
2022/03/02 08:48:59;;;;;;;;;;;128.20;2150.40;;;;;;5034984;28;19913;-81
2022/03/02 08:51:26;;;;;;;;;;;128.30;2176.00;;;;;;5035982;28;19909;-86
2022/03/02 08:53:56;;;;;;;;;;;128.30;2176.00;;;;;;5035643;28;19911;-78
2022/03/02 08:56:21;;;;;;;;;;;128.20;2150.40;;;;;;5036116;28;19905;-81
2022/03/02 08:58:47;;;;;;;;;;;128.40;2124.80;;;;;;5034870;28;19912;-81
2022/03/02 09:01:15;;;;;;;;;;;128.50;2150.40;;;;;;5037592;28;20355;-82
2022/03/02 09:03:43;;;;;;;;;;;128.50;2124.80;;;;;;5044337;28;19916;-78
2022/03/02 09:06:09;;;;;;;;;;;128.50;2124.80;;;;;;5045298;28;19950;-80
2022/03/02 09:08:35;;;;;;;;;;;128.70;2124.80;;;;;;5044589;28;19913;-78
2022/03/02 09:11:00;;;;;;;;;;;128.90;2099.20;;;;;;5043197;28;19916;-79
2022/03/02 09:13:26;;;;;;;;;;;128.60;2099.20;;;;;;5043194;28;19922;-79
2022/03/02 09:15:52;;;;;;;;;;;128.80;2124.80;;;;;;5043295;28;19912;-81
2022/03/02 09:18:17;;;;;;;;;;;128.70;2099.20;;;;;;5043855;28;19995;-84
2022/03/02 09:20:44;;;;;;;;;;;128.90;2073.60;;;;;;5053166;28;19911;-79
2022/03/02 09:23:10;;;;;;;;;;;153.70;2099.20;;;;;;5054916;28;19904;-80
2022/03/02 09:25:39;;;;;;;;;;;153.80;2073.60;;;;;;5055206;28;19947;-78
2022/03/02 09:28:05;;;;;;;;;;;153.90;2073.60;;;;;;5054250;28;20400;-78
2022/03/02 09:30:31;;;;;;;;;;;154.10;2022.40;;;;;;5055116;28;19912;-79
2022/03/02 09:32:59;;;;;;;;;;;154.10;1996.80;;;;;;5054936;28;19912;-80
2022/03/02 09:35:26;;;;;;;;;;;154.20;1996.80;;;;;;5053822;28;20338;-81
2022/03/02 09:37:56;;;;;;;;;;;154.50;1971.20;;;;;;5053875;28;19911;-78
2022/03/02 09:40:21;;;;;;;;;;;154.50;1971.20;;;;;;5053951;28;19928;-78
2022/03/02 09:42:53;;;;;;;;;;;179.20;1971.20;;;;;;5053876;28;19916;-81
2022/03/02 09:45:20;;;;;;;;;;;179.40;1920.00;;;;;;5053968;28;20269;-79
2022/03/02 09:47:50;;;;;;;;;;;179.40;1894.40;;;;;;5054965;28;19928;-79
2022/03/02 09:50:17;;;;;;;;;;;179.40;1920.00;;;;;;5054947;28;19904;-80
2022/03/02 09:52:45;;;;;;;;;;;179.60;1920.00;;;;;;5054211;28;20379;-81
2022/03/02 09:55:12;;;;;;;;;;;179.70;1894.40;;;;;;5055050;28;19955;-85
2022/03/02 09:57:55;;;;;;;;;;;179.70;1868.80;;;;;;5053633;28;19912;-79
2022/03/02 10:00:21;;;;;;;;;;;179.90;1868.80;;;;;;5055237;28;20185;-87
2022/03/02 10:02:49;;;;;;;;;;;179.80;1843.20;;;;;;5053951;28;19923;-92
2022/03/02 10:05:16;;;;;;;;;;;179.90;1843.20;;;;;;5054296;28;19904;-79
2022/03/02 10:07:46;;;;;;;;;;;180.00;1792.00;;;;;;5053687;28;20035;-84
2022/03/02 10:10:13;;;;;;;;;;;179.80;1817.60;;;;;;5042909;28;19916;-80
2022/03/02 10:12:40;;;;;;;;;;;180.10;1817.60;;;;;;5033182;28;20019;-85
2022/03/02 10:15:10;;;;;;;;;;;204.90;1817.60;;;;;;5037503;28;19913;-85
2022/03/02 10:17:37;;;;;;;;;;;205.00;1792.00;;;;;;5041643;28;19908;-80
2022/03/02 10:20:07;;;;;;;;;;;205.20;1792.00;;;;;;5041668;28;19935;-79
2022/03/02 10:22:39;;;;;;;;;;;205.30;1766.40;;;;;;5044749;28;20346;-84
2022/03/02 10:25:07;;;;;;;;;;;205.50;1740.80;;;;;;5045146;28;19966;-84
2022/03/02 10:27:51;;;;;;;;;;;205.50;1715.20;;;;;;5034794;28;19951;-79
2022/03/02 10:30:17;;;;;;;;;;;205.60;1715.20;;;;;;5033556;28;19936;-79
2022/03/02 10:32:43;;;;;;;;;;;205.60;1715.20;;;;;;5033370;28;19912;-84
2022/03/02 10:35:10;;;;;;;;;;;230.50;1689.60;;;;;;5032557;28;19905;-79
2022/03/02 10:37:40;;;;;;;;;;;230.40;1664.00;;;;;;5034477;28;20369;-85
2022/03/02 10:40:15;;;;;;;;;;;230.40;1689.60;;;;;;5032881;28;19909;-85
2022/03/02 10:42:41;;;;;;;;;;;230.60;1664.00;;;;;;5033255;28;20023;-81
2022/03/02 10:45:12;;;;;;;;;;;230.80;1689.60;;;;;;5033336;28;19995;-84
2022/03/02 10:47:57;;;;;;;;;;;231.10;1638.40;;;;;;5033218;28;19905;-85
2022/03/02 10:50:24;;;;;;;;;;;231.00;1638.40;;;;;;5043357;28;20019;-84
2022/03/02 10:52:51;;;;;;;;;;;231.30;1612.80;;;;;;5040810;28;19931;-79
2022/03/02 10:55:17;;;;;;;;;;;256.10;1612.80;;;;;;5038341;28;19905;-88
2022/03/02 10:57:45;;;;;;;;;;;256.00;1587.20;;;;;;5041593;28;19905;-88
2022/03/02 11:00:13;;;;;;;;;;;256.00;1587.20;;;;;;5033609;28;19963;-80
2022/03/02 11:02:41;;;;;;;;;;;256.30;1612.80;;;;;;5032792;28;19917;-80
2022/03/02 11:05:08;;;;;;;;;;;256.20;1587.20;;;;;;5034151;28;20270;-83
2022/03/02 11:07:35;;;;;;;;;;;256.60;1536.00;;;;;;5033015;28;19909;-80
2022/03/02 11:10:01;;;;;;;;;;;256.60;1510.40;;;;;;5033117;28;19909;-78
2022/03/02 11:12:28;;;;;;;;;;;281.70;1587.20;;;;;;5032646;28;19971;-79
2022/03/02 11:14:57;;;;;;;;;;;281.90;1561.60;;;;;;5032624;28;19909;-78
2022/03/02 11:17:23;;;;;;;;;;;256.90;1510.40;;;;;;5033076;28;19905;-82
2022/03/02 11:19:49;;;;;;;;;;;256.90;1510.40;;;;;;5032770;28;19906;-84
2022/03/02 11:22:20;;;;;;;;;;;256.80;1484.80;;;;;;5033041;28;19905;-85
2022/03/02 11:24:46;;;;;;;;;;;256.70;1536.00;;;;;;5032424;28;19905;-85
2022/03/02 11:27:30;;;;;;;;;;;256.90;1536.00;;;;;;5033905;28;19905;-86
2022/03/02 11:30:00;;;;;;;;;;;282.00;1510.40;;;;;;5035111;28;20389;-85
2022/03/02 11:32:26;;;;;;;;;;;282.00;1510.40;;;;;;5038544;28;19999;-83
2022/03/02 11:34:56;;;;;;;;;;;282.20;1484.80;;;;;;5038788;28;19960;-81
2022/03/02 11:37:23;;;;;;;;;;;282.40;1484.80;;;;;;5043976;28;20418;-82
2022/03/02 11:39:49;;;;;;;;;;;282.50;1459.20;;;;;;5052359;28;20358;-82
2022/03/02 11:42:15;;;;;;;;;;;282.40;1459.20;;;;;;5052387;28;19931;-79
2022/03/02 11:44:42;;;;;;;;;;;282.40;1459.20;;;;;;5051228;28;19908;-79
2022/03/02 11:47:08;;;;;;;;;;;282.20;1510.40;;;;;;5051867;28;19909;-80
2022/03/02 11:49:37;;;;;;;;;;;282.20;1484.80;;;;;;5045743;28;20035;-81
2022/03/02 11:52:04;;;;;;;;;;;282.50;1459.20;;;;;;5044045;28;19959;-79
2022/03/02 11:54:42;;;;;;;;;;;307.50;1433.60;;;;;;5038530;28;19905;-81
2022/03/02 11:57:08;;;;;;;;;;;307.50;1459.20;;;;;;5035722;28;19905;-83
2022/03/02 11:59:35;;;;;;;;;;;307.60;1459.20;;;;;;5035582;28;19905;-82
2022/03/02 12:02:10;;;;;;;;;;;307.70;1433.60;;;;;;5037142;28;20362;-79
2022/03/02 12:04:35;;;;;;;;;;;307.50;1433.60;;;;;;5035560;28;19924;-81
2022/03/02 12:07:02;;;;;;;;;;;307.50;1433.60;;;;;;5035731;28;19905;-81
2022/03/02 12:09:38;;;;;;;;;;;307.70;1433.60;;;;;;5043257;28;19921;-79
2022/03/02 12:12:15;;;;;;;;;;;307.80;1408.00;;;;;;5040492;28;20366;-77
2022/03/02 12:14:49;;;;;;;;;;;307.90;1408.00;;;;;;5030651;28;19920;-81
2022/03/02 12:17:15;;;;;;;;;;;307.80;1408.00;;;;;;5030109;28;19915;-78
2022/03/02 12:19:41;;;;;;;;;;;307.80;1408.00;;;;;;5047489;28;20000;-78
2022/03/02 12:22:08;;;;;;;;;;;307.80;1382.40;;;;;;5038962;28;19905;-78
2022/03/02 12:24:34;;;;;;;;;;;332.90;1433.60;;;;;;5044417;28;20322;-80
2022/03/02 12:27:05;;;;;;;;;;;307.80;1408.00;;;;;;5042707;28;19909;-83
2022/03/02 12:29:31;;;;;;;;;;;307.80;1382.40;;;;;;5036812;28;19917;-79
2022/03/02 12:32:09;;;;;;;;;;;308.10;1382.40;;;;;;5046012;28;20044;-84
2022/03/02 12:34:40;;;;;;;;;;;307.80;1382.40;;;;;;5044643;28;19927;-78
2022/03/02 12:37:06;;;;;;;;;;;332.80;1408.00;;;;;;5041761;28;19912;-83
2022/03/02 12:39:32;;;;;;;;;;;333.30;1408.00;;;;;;5047562;28;19911;-84
2022/03/02 12:41:58;;;;;;;;;;;333.20;1356.80;;;;;;5045248;28;20273;-86
2022/03/02 12:44:25;;;;;;;;;;;332.90;1408.00;;;;;;5044421;28;19909;-82
2022/03/02 12:46:52;;;;;;;;;;;332.90;1382.40;;;;;;5039578;28;19909;-78
2022/03/02 12:49:25;;;;;;;;;;;332.90;1356.80;;;;;;5041348;28;20883;-84
2022/03/02 12:51:54;;;;;;;;;;;333.30;1382.40;;;;;;5044203;28;19905;-80
2022/03/02 12:54:20;;;;;;;;;;;333.30;1356.80;;;;;;5043503;28;19991;-82
2022/03/02 12:56:45;;;;;;;;;;;332.80;1382.40;;;;;;5041101;28;20017;-81
2022/03/02 12:59:12;;;;;;;;;;;307.90;1356.80;;;;;;5033949;28;19912;-80
2022/03/02 13:01:38;;;;;;;;;;;308.10;1382.40;;;;;;5034578;28;19911;-80
2022/03/02 13:04:04;;;;;;;;;;;307.70;1382.40;;;;;;5034734;28;19999;-82
2022/03/02 13:06:32;;;;;;;;;;;307.60;1408.00;;;;;;5035961;28;19912;-81
2022/03/02 13:09:04;;;;;;;;;;;308.00;1382.40;;;;;;5035702;28;19917;-81
2022/03/02 13:11:31;;;;;;;;;;;307.90;1382.40;;;;;;5034332;28;19909;-78
2022/03/02 13:13:57;;;;;;;;;;;307.60;1408.00;;;;;;5034592;28;19913;-79
2022/03/02 13:16:23;;;;;;;;;;;307.70;1382.40;;;;;;5035993;28;19959;-79
2022/03/02 13:18:50;;;;;;;;;;;307.60;1382.40;;;;;;5035847;28;19909;-80
2022/03/02 13:21:23;;;;;;;;;;;307.90;1382.40;;;;;;5036073;28;19905;-83
2022/03/02 13:24:01;;;;;;;;;;;307.60;1382.40;;;;;;5034513;28;19916;-79
2022/03/02 13:26:26;;;;;;;;;;;307.30;1408.00;;;;;;5035242;28;20428;-79
2022/03/02 13:29:00;;;;;;;;;;;307.30;1408.00;;;;;;5033746;28;19913;-79
2022/03/02 13:31:26;;;;;;;;;;;282.50;1408.00;;;;;;5034701;28;20339;-79
2022/03/02 13:33:58;;;;;;;;;;;282.50;1382.40;;;;;;5034017;28;19905;-79
2022/03/02 13:36:42;;;;;;;;;;;307.40;1408.00;;;;;;5035115;28;19974;-80
2022/03/02 13:39:11;;;;;;;;;;;307.30;1408.00;;;;;;5033974;28;19905;-80
2022/03/02 13:41:46;;;;;;;;;;;307.30;1433.60;;;;;;5033646;28;19909;-80